UKV5095 EKVG-BIKF
Flight info
| Callsign | UKV5095 |
|---|---|
| Flight time | 1h 19m |
| Altitude | 36000 |
| Route | MY DCT ING DCT NASBU NASBU4K |
| Aircraft | E190/M-SDE3GILORVW/S |
Departure
| Time | 2026-04-27 19:01 |
|---|---|
| Airport | Vágar Airport (EKVG) |
Arrival
| Time | 2026-04-27 20:20 |
|---|---|
| Airport | Keflavik International Airport (BIKF) |
| Time | Latitude | Longitude | Altitude | Speed | Heading |
|---|---|---|---|---|---|
| 2026-04-27 18:40 | 62.06676 | -7.27858 | 278 ft | 0 kts | 29° |
| 2026-04-27 18:50 | 62.06671 | -7.27863 | 277 ft | 4 kts | 27° |
| 2026-04-27 18:50 | 62.06647 | -7.27881 | 277 ft | 4 kts | 355° |
| 2026-04-27 18:50 | 62.06625 | -7.27863 | 277 ft | 4 kts | 304° |
| 2026-04-27 18:51 | 62.06619 | -7.27844 | 277 ft | 1 kts | 297° |
| 2026-04-27 18:55 | 62.06621 | -7.27852 | 277 ft | 2 kts | 297° |
| 2026-04-27 18:55 | 62.06631 | -7.27891 | 277 ft | 4 kts | 297° |
| 2026-04-27 18:56 | 62.06643 | -7.27951 | 278 ft | 4 kts | 288° |
| 2026-04-27 18:56 | 62.06652 | -7.28026 | 277 ft | 6 kts | 273° |
| 2026-04-27 18:56 | 62.06621 | -7.28082 | 279 ft | 7 kts | 192° |
| 2026-04-27 18:56 | 62.06566 | -7.28098 | 277 ft | 0 kts | 192° |
| 2026-04-27 18:57 | 62.06559 | -7.28102 | 277 ft | 2 kts | 193° |
| 2026-04-27 18:57 | 62.06548 | -7.28108 | 277 ft | 1 kts | 196° |
| 2026-04-27 18:57 | 62.06545 | -7.28110 | 277 ft | 2 kts | 198° |
| 2026-04-27 18:57 | 62.06516 | -7.28133 | 279 ft | 6 kts | 200° |
| 2026-04-27 18:58 | 62.06484 | -7.28217 | 279 ft | 10 kts | 282° |
| 2026-04-27 18:58 | 62.06512 | -7.28333 | 281 ft | 16 kts | 298° |
| 2026-04-27 18:58 | 62.06606 | -7.28716 | 274 ft | 27 kts | 298° |
| 2026-04-27 18:58 | 62.06668 | -7.28964 | 270 ft | 21 kts | 298° |
| 2026-04-27 18:59 | 62.06706 | -7.29136 | 268 ft | 11 kts | 281° |
| 2026-04-27 18:59 | 62.06727 | -7.29223 | 268 ft | 6 kts | 349° |
| 2026-04-27 18:59 | 62.06723 | -7.29175 | 268 ft | 6 kts | 148° |
| 2026-04-27 18:59 | 62.06701 | -7.29099 | 268 ft | 0 kts | 118° |
| 2026-04-27 19:00 | 62.06689 | -7.29049 | 269 ft | 25 kts | 118° |
| 2026-04-27 19:01 | 62.06482 | -7.28210 | 282 ft | 101 kts | 118° |
| 2026-04-27 19:01 | 62.06049 | -7.26464 | 372 ft | 159 kts | 120° |
| 2026-04-27 19:01 | 62.05494 | -7.24201 | 1098 ft | 179 kts | 122° |
| 2026-04-27 19:01 | 62.04863 | -7.22041 | 2116 ft | 171 kts | 138° |
| 2026-04-27 19:02 | 62.03764 | -7.21273 | 2622 ft | 176 kts | 194° |
| 2026-04-27 19:02 | 62.02651 | -7.22576 | 3099 ft | 192 kts | 218° |
| 2026-04-27 19:02 | 62.01575 | -7.24374 | 3878 ft | 198 kts | 223° |
| 2026-04-27 19:02 | 62.00546 | -7.26545 | 4465 ft | 219 kts | 233° |
| 2026-04-27 19:03 | 61.99712 | -7.29380 | 5190 ft | 234 kts | 246° |
| 2026-04-27 19:03 | 61.99178 | -7.32713 | 5968 ft | 244 kts | 259° |
| 2026-04-27 19:03 | 61.99044 | -7.36349 | 6807 ft | 249 kts | 274° |
| 2026-04-27 19:03 | 61.99204 | -7.38777 | 7391 ft | 250 kts | 283° |
| 2026-04-27 19:04 | 62.00088 | -7.43343 | 8616 ft | 251 kts | 301° |
| 2026-04-27 19:04 | 62.01197 | -7.46212 | 9573 ft | 252 kts | 315° |
| 2026-04-27 19:04 | 62.02614 | -7.48440 | 10542 ft | 255 kts | 325° |
| 2026-04-27 19:04 | 62.04184 | -7.50509 | 11049 ft | 274 kts | 326° |
| 2026-04-27 19:05 | 62.05863 | -7.52681 | 11580 ft | 291 kts | 326° |
| 2026-04-27 19:05 | 62.07632 | -7.54924 | 12366 ft | 299 kts | 327° |
| 2026-04-27 19:05 | 62.09395 | -7.57195 | 13327 ft | 301 kts | 324° |
| 2026-04-27 19:05 | 62.10867 | -7.60328 | 14315 ft | 302 kts | 301° |
| 2026-04-27 19:06 | 62.11740 | -7.64423 | 15281 ft | 304 kts | 293° |
| 2026-04-27 19:06 | 62.12585 | -7.68604 | 16220 ft | 308 kts | 295° |
| 2026-04-27 19:06 | 62.13450 | -7.72813 | 17113 ft | 311 kts | 294° |
| 2026-04-27 19:06 | 62.14308 | -7.77089 | 17996 ft | 315 kts | 294° |
| 2026-04-27 19:07 | 62.15162 | -7.81424 | 18861 ft | 318 kts | 294° |
| 2026-04-27 19:07 | 62.16020 | -7.85809 | 19636 ft | 321 kts | 295° |
| 2026-04-27 19:07 | 62.16987 | -7.90137 | 20424 ft | 324 kts | 298° |
| 2026-04-27 19:07 | 62.18015 | -7.94467 | 21168 ft | 328 kts | 298° |
| 2026-04-27 19:08 | 62.19041 | -7.98848 | 21874 ft | 331 kts | 297° |
| 2026-04-27 19:08 | 62.20064 | -8.03285 | 22543 ft | 334 kts | 297° |
| 2026-04-27 19:08 | 62.21092 | -8.07779 | 23206 ft | 337 kts | 297° |
| 2026-04-27 19:08 | 62.22124 | -8.12319 | 23872 ft | 341 kts | 297° |
| 2026-04-27 19:09 | 62.23164 | -8.16908 | 24432 ft | 344 kts | 297° |
| 2026-04-27 19:09 | 62.24214 | -8.21553 | 24980 ft | 348 kts | 297° |
| 2026-04-27 19:09 | 62.25274 | -8.26250 | 25530 ft | 352 kts | 297° |
| 2026-04-27 19:09 | 62.26344 | -8.31004 | 26065 ft | 356 kts | 297° |
| 2026-04-27 19:10 | 62.27423 | -8.35808 | 26585 ft | 359 kts | 296° |
| 2026-04-27 19:10 | 62.28510 | -8.40657 | 27148 ft | 361 kts | 296° |
| 2026-04-27 19:10 | 62.29603 | -8.45548 | 27628 ft | 365 kts | 296° |
| 2026-04-27 19:10 | 62.30333 | -8.48817 | 27934 ft | 367 kts | 296° |
| 2026-04-27 19:11 | 62.31817 | -8.55481 | 28549 ft | 372 kts | 296° |
| 2026-04-27 19:11 | 62.32940 | -8.60532 | 28980 ft | 376 kts | 296° |
| 2026-04-27 19:11 | 62.34070 | -8.65626 | 29423 ft | 379 kts | 296° |
| 2026-04-27 19:11 | 62.35207 | -8.70770 | 29857 ft | 382 kts | 296° |
| 2026-04-27 19:12 | 62.36351 | -8.75956 | 30280 ft | 385 kts | 295° |
| 2026-04-27 19:12 | 62.37503 | -8.81191 | 30622 ft | 388 kts | 295° |
| 2026-04-27 19:12 | 62.38660 | -8.86458 | 30997 ft | 389 kts | 295° |
| 2026-04-27 19:12 | 62.39817 | -8.91738 | 31388 ft | 390 kts | 295° |
| 2026-04-27 19:13 | 62.40976 | -8.97043 | 31758 ft | 391 kts | 295° |
| 2026-04-27 19:13 | 62.42135 | -9.02365 | 32109 ft | 393 kts | 295° |
| 2026-04-27 19:13 | 62.43296 | -9.07711 | 32418 ft | 394 kts | 295° |
| 2026-04-27 19:13 | 62.44459 | -9.13067 | 32793 ft | 393 kts | 295° |
| 2026-04-27 19:14 | 62.45613 | -9.18402 | 33226 ft | 391 kts | 295° |
| 2026-04-27 19:14 | 62.46758 | -9.23710 | 33662 ft | 388 kts | 295° |
| 2026-04-27 19:14 | 62.47877 | -9.28916 | 34087 ft | 386 kts | 295° |
| 2026-04-27 19:14 | 62.49006 | -9.34166 | 34463 ft | 384 kts | 295° |
| 2026-04-27 19:15 | 62.50133 | -9.39415 | 34737 ft | 385 kts | 295° |
| 2026-04-27 19:15 | 62.51255 | -9.44663 | 35044 ft | 384 kts | 295° |
| 2026-04-27 19:15 | 62.52375 | -9.49900 | 35391 ft | 383 kts | 295° |
| 2026-04-27 19:15 | 62.53491 | -9.55139 | 35689 ft | 383 kts | 295° |
| 2026-04-27 19:16 | 62.54600 | -9.60379 | 35977 ft | 382 kts | 295° |
| 2026-04-27 19:16 | 62.55335 | -9.63845 | 36180 ft | 382 kts | 294° |
| 2026-04-27 19:16 | 62.56813 | -9.70840 | 36574 ft | 381 kts | 294° |
| 2026-04-27 19:16 | 62.57915 | -9.76071 | 36858 ft | 381 kts | 294° |
| 2026-04-27 19:17 | 62.59013 | -9.81298 | 37140 ft | 381 kts | 294° |
| 2026-04-27 19:17 | 62.60111 | -9.86523 | 37422 ft | 380 kts | 294° |
| 2026-04-27 19:17 | 62.61205 | -9.91751 | 37706 ft | 380 kts | 294° |
| 2026-04-27 19:17 | 62.62294 | -9.96948 | 37942 ft | 373 kts | 294° |
| 2026-04-27 19:18 | 62.63343 | -10.01960 | 37848 ft | 356 kts | 294° |
| 2026-04-27 19:18 | 62.64339 | -10.06757 | 37770 ft | 342 kts | 294° |
| 2026-04-27 19:18 | 62.65308 | -10.11429 | 37701 ft | 339 kts | 294° |
| 2026-04-27 19:19 | 62.67274 | -10.20942 | 37703 ft | 351 kts | 294° |
| 2026-04-27 19:19 | 62.69303 | -10.30768 | 37757 ft | 361 kts | 294° |
| 2026-04-27 19:20 | 62.71387 | -10.40886 | 37811 ft | 371 kts | 294° |
| 2026-04-27 19:20 | 62.73518 | -10.51278 | 37844 ft | 380 kts | 293° |
| 2026-04-27 19:21 | 62.75681 | -10.61943 | 37909 ft | 389 kts | 292° |
| 2026-04-27 19:21 | 62.77886 | -10.72855 | 37950 ft | 396 kts | 292° |
| 2026-04-27 19:22 | 62.80114 | -10.83925 | 38287 ft | 395 kts | 292° |
| 2026-04-27 19:22 | 62.82327 | -10.94986 | 38346 ft | 400 kts | 292° |
| 2026-04-27 19:22 | 62.83439 | -11.00593 | 38217 ft | 401 kts | 292° |
| 2026-04-27 19:23 | 62.84543 | -11.06184 | 38230 ft | 401 kts | 292° |
| 2026-04-27 19:23 | 62.86745 | -11.17328 | 38233 ft | 402 kts | 292° |
| 2026-04-27 19:24 | 62.88958 | -11.28576 | 38232 ft | 402 kts | 291° |
| 2026-04-27 19:24 | 62.91152 | -11.39856 | 38237 ft | 402 kts | 291° |
| 2026-04-27 19:25 | 62.93350 | -11.51115 | 38221 ft | 401 kts | 291° |
| 2026-04-27 19:25 | 62.95527 | -11.62370 | 38221 ft | 400 kts | 291° |
| 2026-04-27 19:26 | 62.97695 | -11.73606 | 38222 ft | 399 kts | 290° |
| 2026-04-27 19:26 | 62.99835 | -11.84839 | 38216 ft | 398 kts | 290° |
| 2026-04-27 19:27 | 63.01977 | -11.96052 | 38209 ft | 397 kts | 290° |
| 2026-04-27 19:27 | 63.04098 | -12.07268 | 38210 ft | 396 kts | 290° |
| 2026-04-27 19:28 | 63.06201 | -12.18529 | 38209 ft | 400 kts | 290° |
| 2026-04-27 19:28 | 63.08342 | -12.29978 | 38216 ft | 406 kts | 290° |
| 2026-04-27 19:29 | 63.10493 | -12.41511 | 38197 ft | 406 kts | 290° |
| 2026-04-27 19:29 | 63.12626 | -12.53066 | 38192 ft | 406 kts | 289° |
| 2026-04-27 19:30 | 63.14748 | -12.64627 | 38185 ft | 405 kts | 289° |
| 2026-04-27 19:30 | 63.16858 | -12.76163 | 38212 ft | 404 kts | 289° |
| 2026-04-27 19:31 | 63.18936 | -12.87576 | 38176 ft | 401 kts | 289° |
| 2026-04-27 19:31 | 63.21005 | -12.99042 | 38166 ft | 400 kts | 288° |
| 2026-04-27 19:32 | 63.23078 | -13.10633 | 38189 ft | 408 kts | 288° |
| 2026-04-27 19:32 | 63.25188 | -13.22383 | 38165 ft | 411 kts | 288° |
| 2026-04-27 19:33 | 63.27286 | -13.34174 | 38166 ft | 410 kts | 288° |
| 2026-04-27 19:33 | 63.29363 | -13.45970 | 38167 ft | 410 kts | 288° |
| 2026-04-27 19:34 | 63.31416 | -13.57775 | 38165 ft | 409 kts | 288° |
| 2026-04-27 19:34 | 63.33464 | -13.69559 | 38158 ft | 408 kts | 288° |
| 2026-04-27 19:35 | 63.35501 | -13.81348 | 38158 ft | 407 kts | 288° |
| 2026-04-27 19:35 | 63.37519 | -13.93181 | 38172 ft | 412 kts | 287° |
| 2026-04-27 19:36 | 63.39579 | -14.05192 | 38161 ft | 416 kts | 287° |
| 2026-04-27 19:36 | 63.41617 | -14.17286 | 38143 ft | 416 kts | 287° |
| 2026-04-27 19:37 | 63.43659 | -14.29286 | 38142 ft | 416 kts | 287° |
| 2026-04-27 19:37 | 63.45683 | -14.41375 | 38140 ft | 415 kts | 287° |
| 2026-04-27 19:38 | 63.47714 | -14.53458 | 38138 ft | 414 kts | 286° |
| 2026-04-27 19:38 | 63.49719 | -14.65535 | 38129 ft | 414 kts | 286° |
| 2026-04-27 19:39 | 63.51702 | -14.77623 | 38113 ft | 414 kts | 285° |
| 2026-04-27 19:39 | 63.53686 | -14.89728 | 38134 ft | 414 kts | 285° |
| 2026-04-27 19:40 | 63.55656 | -15.01865 | 38130 ft | 414 kts | 285° |
| 2026-04-27 19:40 | 63.57604 | -15.14025 | 38106 ft | 415 kts | 284° |
| 2026-04-27 19:41 | 63.59548 | -15.26226 | 38111 ft | 415 kts | 284° |
| 2026-04-27 19:41 | 63.61488 | -15.38455 | 38113 ft | 416 kts | 284° |
| 2026-04-27 19:42 | 63.63431 | -15.50700 | 38113 ft | 416 kts | 284° |
| 2026-04-27 19:42 | 63.65341 | -15.62900 | 38124 ft | 416 kts | 284° |
| 2026-04-27 19:43 | 63.67278 | -15.75299 | 38096 ft | 417 kts | 283° |
| 2026-04-27 19:43 | 63.69189 | -15.87544 | 38105 ft | 417 kts | 283° |
| 2026-04-27 19:44 | 63.71095 | -15.99893 | 38103 ft | 417 kts | 282° |
| 2026-04-27 19:44 | 63.72991 | -16.12351 | 38097 ft | 418 kts | 283° |
| 2026-04-27 19:45 | 63.74880 | -16.24759 | 38097 ft | 417 kts | 282° |
| 2026-04-27 19:45 | 63.76722 | -16.37097 | 38099 ft | 418 kts | 282° |
| 2026-04-27 19:46 | 63.78583 | -16.49534 | 38098 ft | 417 kts | 282° |
| 2026-04-27 19:46 | 63.80338 | -16.62031 | 38080 ft | 411 kts | 273° |
| 2026-04-27 19:47 | 63.80699 | -16.74766 | 38091 ft | 406 kts | 268° |
| 2026-04-27 19:47 | 63.81196 | -16.87523 | 38094 ft | 408 kts | 270° |
| 2026-04-27 19:48 | 63.81818 | -17.00311 | 38089 ft | 409 kts | 271° |
| 2026-04-27 19:48 | 63.82344 | -17.10949 | 38088 ft | 409 kts | 271° |
| 2026-04-27 19:49 | 63.82970 | -17.23763 | 38089 ft | 410 kts | 270° |
| 2026-04-27 19:49 | 63.83585 | -17.36601 | 38089 ft | 410 kts | 270° |
| 2026-04-27 19:50 | 63.84189 | -17.49418 | 38072 ft | 407 kts | 269° |
| 2026-04-27 19:50 | 63.84777 | -17.62196 | 38076 ft | 408 kts | 269° |
| 2026-04-27 19:51 | 63.85355 | -17.74996 | 38067 ft | 408 kts | 269° |
| 2026-04-27 19:51 | 63.85923 | -17.87804 | 38068 ft | 408 kts | 269° |
| 2026-04-27 19:52 | 63.86482 | -18.00628 | 38053 ft | 410 kts | 269° |
| 2026-04-27 19:52 | 63.87033 | -18.13487 | 38063 ft | 409 kts | 268° |
| 2026-04-27 19:53 | 63.87833 | -18.32741 | 38048 ft | 406 kts | 268° |
| 2026-04-27 19:53 | 63.88093 | -18.39130 | 37941 ft | 406 kts | 268° |
| 2026-04-27 19:53 | 63.88354 | -18.45427 | 37582 ft | 393 kts | 268° |
| 2026-04-27 19:54 | 63.88605 | -18.51475 | 37286 ft | 380 kts | 267° |
| 2026-04-27 19:54 | 63.88843 | -18.57403 | 36724 ft | 373 kts | 267° |
| 2026-04-27 19:54 | 63.89074 | -18.63192 | 36258 ft | 365 kts | 266° |
| 2026-04-27 19:54 | 63.89296 | -18.68879 | 35774 ft | 357 kts | 266° |
| 2026-04-27 19:55 | 63.89505 | -18.74436 | 35277 ft | 350 kts | 266° |
| 2026-04-27 19:55 | 63.89705 | -18.79899 | 34829 ft | 343 kts | 265° |
| 2026-04-27 19:55 | 63.89901 | -18.85251 | 34347 ft | 337 kts | 265° |
| 2026-04-27 19:55 | 63.90096 | -18.90502 | 33915 ft | 331 kts | 265° |
| 2026-04-27 19:56 | 63.90286 | -18.95691 | 33499 ft | 329 kts | 265° |
| 2026-04-27 19:56 | 63.90467 | -19.00846 | 33047 ft | 336 kts | 265° |
| 2026-04-27 19:56 | 63.90653 | -19.06201 | 32614 ft | 343 kts | 265° |
| 2026-04-27 19:56 | 63.90852 | -19.11633 | 32086 ft | 348 kts | 265° |
| 2026-04-27 19:57 | 63.91053 | -19.17119 | 31684 ft | 349 kts | 265° |
| 2026-04-27 19:57 | 63.91252 | -19.22634 | 31184 ft | 351 kts | 265° |
| 2026-04-27 19:57 | 63.91442 | -19.28173 | 30730 ft | 352 kts | 265° |
| 2026-04-27 19:57 | 63.91633 | -19.33739 | 30242 ft | 354 kts | 265° |
| 2026-04-27 19:58 | 63.91823 | -19.39331 | 29753 ft | 355 kts | 265° |
| 2026-04-27 19:58 | 63.92013 | -19.44932 | 29301 ft | 356 kts | 265° |
| 2026-04-27 19:58 | 63.92200 | -19.50569 | 28796 ft | 358 kts | 265° |
| 2026-04-27 19:58 | 63.92383 | -19.56219 | 28320 ft | 360 kts | 265° |
| 2026-04-27 19:59 | 63.92572 | -19.61918 | 27853 ft | 362 kts | 266° |
| 2026-04-27 19:59 | 63.92761 | -19.67620 | 27353 ft | 361 kts | 266° |
| 2026-04-27 19:59 | 63.92943 | -19.73287 | 26871 ft | 358 kts | 266° |
| 2026-04-27 19:59 | 63.93120 | -19.78905 | 26383 ft | 355 kts | 266° |
| 2026-04-27 20:00 | 63.93295 | -19.84471 | 25907 ft | 352 kts | 266° |
| 2026-04-27 20:00 | 63.93464 | -19.90006 | 25492 ft | 350 kts | 265° |
| 2026-04-27 20:00 | 63.93629 | -19.95514 | 24964 ft | 348 kts | 264° |
| 2026-04-27 20:00 | 63.93796 | -20.00964 | 24534 ft | 342 kts | 264° |
| 2026-04-27 20:01 | 63.93957 | -20.06344 | 24076 ft | 340 kts | 264° |
| 2026-04-27 20:01 | 63.94107 | -20.11703 | 23616 ft | 339 kts | 264° |
| 2026-04-27 20:01 | 63.94253 | -20.17044 | 23137 ft | 337 kts | 264° |
| 2026-04-27 20:01 | 63.94402 | -20.22330 | 22717 ft | 335 kts | 264° |
| 2026-04-27 20:02 | 63.94546 | -20.27603 | 22259 ft | 333 kts | 264° |
| 2026-04-27 20:02 | 63.94693 | -20.32853 | 21819 ft | 332 kts | 264° |
| 2026-04-27 20:02 | 63.94825 | -20.38072 | 21381 ft | 329 kts | 263° |
| 2026-04-27 20:02 | 63.94917 | -20.43260 | 20940 ft | 327 kts | 263° |
| 2026-04-27 20:03 | 63.95022 | -20.48423 | 20497 ft | 326 kts | 264° |
| 2026-04-27 20:03 | 63.95144 | -20.53551 | 20075 ft | 324 kts | 264° |
| 2026-04-27 20:03 | 63.95275 | -20.58667 | 19623 ft | 323 kts | 264° |
| 2026-04-27 20:03 | 63.95407 | -20.63742 | 19208 ft | 321 kts | 264° |
| 2026-04-27 20:04 | 63.95538 | -20.68800 | 18786 ft | 319 kts | 264° |
| 2026-04-27 20:04 | 63.95667 | -20.73835 | 18363 ft | 318 kts | 264° |
| 2026-04-27 20:04 | 63.95793 | -20.78845 | 17933 ft | 317 kts | 264° |
| 2026-04-27 20:04 | 63.95919 | -20.83835 | 17673 ft | 311 kts | 264° |
| 2026-04-27 20:05 | 63.96042 | -20.88795 | 17365 ft | 318 kts | 263° |
| 2026-04-27 20:05 | 63.96160 | -20.93741 | 16957 ft | 316 kts | 264° |
| 2026-04-27 20:05 | 63.96282 | -20.98710 | 16529 ft | 314 kts | 263° |
| 2026-04-27 20:05 | 63.96400 | -21.03651 | 16124 ft | 311 kts | 263° |
| 2026-04-27 20:06 | 63.96514 | -21.08568 | 15690 ft | 311 kts | 263° |
| 2026-04-27 20:06 | 63.96628 | -21.13452 | 15259 ft | 307 kts | 263° |
| 2026-04-27 20:06 | 63.96735 | -21.18283 | 14865 ft | 302 kts | 263° |
| 2026-04-27 20:06 | 63.96839 | -21.22986 | 14458 ft | 293 kts | 262° |
| 2026-04-27 20:07 | 63.96937 | -21.27554 | 14090 ft | 285 kts | 262° |
| 2026-04-27 20:07 | 63.97029 | -21.32003 | 13702 ft | 279 kts | 262° |
| 2026-04-27 20:07 | 63.97117 | -21.36346 | 13331 ft | 271 kts | 261° |
| 2026-04-27 20:07 | 63.97202 | -21.40581 | 12994 ft | 265 kts | 261° |
| 2026-04-27 20:08 | 63.97280 | -21.44757 | 12645 ft | 264 kts | 261° |
| 2026-04-27 20:08 | 63.97671 | -21.48973 | 12267 ft | 285 kts | 280° |
| 2026-04-27 20:08 | 63.98490 | -21.53141 | 11883 ft | 290 kts | 283° |
| 2026-04-27 20:08 | 63.99349 | -21.57310 | 11444 ft | 291 kts | 284° |
| 2026-04-27 20:09 | 64.00204 | -21.61469 | 11048 ft | 289 kts | 284° |
| 2026-04-27 20:09 | 64.01048 | -21.65617 | 10654 ft | 289 kts | 283° |
| 2026-04-27 20:09 | 64.01889 | -21.69773 | 10295 ft | 288 kts | 282° |
| 2026-04-27 20:09 | 64.02725 | -21.73915 | 9891 ft | 286 kts | 282° |
| 2026-04-27 20:10 | 64.03549 | -21.78004 | 9508 ft | 282 kts | 282° |
| 2026-04-27 20:10 | 64.04359 | -21.82055 | 9147 ft | 280 kts | 282° |
| 2026-04-27 20:10 | 64.05166 | -21.86103 | 8778 ft | 281 kts | 282° |
| 2026-04-27 20:10 | 64.05974 | -21.90170 | 8389 ft | 281 kts | 283° |
| 2026-04-27 20:11 | 64.06784 | -21.94227 | 8031 ft | 281 kts | 283° |
| 2026-04-27 20:11 | 64.07588 | -21.98281 | 7656 ft | 280 kts | 283° |
| 2026-04-27 20:11 | 64.08389 | -22.02328 | 7269 ft | 279 kts | 283° |
| 2026-04-27 20:11 | 64.09188 | -22.06361 | 6919 ft | 278 kts | 283° |
| 2026-04-27 20:12 | 64.09972 | -22.10333 | 6546 ft | 278 kts | 283° |
| 2026-04-27 20:12 | 64.10764 | -22.14347 | 6192 ft | 276 kts | 283° |
| 2026-04-27 20:12 | 64.11562 | -22.18393 | 5794 ft | 274 kts | 283° |
| 2026-04-27 20:12 | 64.12329 | -22.22274 | 5452 ft | 269 kts | 283° |
| 2026-04-27 20:13 | 64.13085 | -22.26109 | 5079 ft | 259 kts | 283° |
| 2026-04-27 20:13 | 64.13807 | -22.29781 | 4757 ft | 247 kts | 282° |
| 2026-04-27 20:13 | 64.14495 | -22.33302 | 4426 ft | 238 kts | 281° |
| 2026-04-27 20:13 | 64.15160 | -22.36735 | 4144 ft | 234 kts | 281° |
| 2026-04-27 20:14 | 64.15814 | -22.40107 | 3840 ft | 227 kts | 281° |
| 2026-04-27 20:14 | 64.16202 | -22.43387 | 3474 ft | 199 kts | 254° |
| 2026-04-27 20:14 | 64.15897 | -22.46302 | 3262 ft | 182 kts | 238° |
| 2026-04-27 20:14 | 64.15419 | -22.48948 | 3031 ft | 179 kts | 235° |
| 2026-04-27 20:15 | 64.14938 | -22.51592 | 2791 ft | 180 kts | 236° |
| 2026-04-27 20:15 | 64.14485 | -22.54244 | 2561 ft | 178 kts | 237° |
| 2026-04-27 20:15 | 64.14053 | -22.56900 | 2439 ft | 178 kts | 237° |
| 2026-04-27 20:15 | 64.13505 | -22.59228 | 2195 ft | 155 kts | 212° |
| 2026-04-27 20:16 | 64.12661 | -22.60307 | 2374 ft | 121 kts | 196° |
| 2026-04-27 20:16 | 64.11883 | -22.60494 | 3159 ft | 115 kts | 182° |
| 2026-04-27 20:16 | 64.10971 | -22.60498 | 2882 ft | 145 kts | 183° |
| 2026-04-27 20:16 | 64.09965 | -22.60540 | 2471 ft | 141 kts | 181° |
| 2026-04-27 20:17 | 64.09012 | -22.60535 | 2224 ft | 134 kts | 182° |
| 2026-04-27 20:17 | 64.08088 | -22.60538 | 2009 ft | 133 kts | 181° |
| 2026-04-27 20:17 | 64.07158 | -22.60537 | 1811 ft | 135 kts | 181° |
| 2026-04-27 20:17 | 64.06535 | -22.60537 | 1695 ft | 136 kts | 181° |
| 2026-04-27 20:18 | 64.05259 | -22.60539 | 1439 ft | 138 kts | 180° |
| 2026-04-27 20:18 | 64.04308 | -22.60536 | 1247 ft | 131 kts | 179° |
| 2026-04-27 20:18 | 64.03454 | -22.60539 | 1076 ft | 116 kts | 180° |
| 2026-04-27 20:18 | 64.02669 | -22.60540 | 884 ft | 111 kts | 179° |
| 2026-04-27 20:19 | 64.01892 | -22.60542 | 769 ft | 112 kts | 178° |
| 2026-04-27 20:19 | 64.01109 | -22.60540 | 590 ft | 112 kts | 177° |
| 2026-04-27 20:19 | 64.00335 | -22.60545 | 431 ft | 113 kts | 176° |
| 2026-04-27 20:19 | 63.99526 | -22.60550 | 281 ft | 115 kts | 176° |
| 2026-04-27 20:20 | 63.98740 | -22.60548 | 177 ft | 106 kts | 176° |
| 2026-04-27 20:20 | 63.98141 | -22.60541 | 170 ft | 62 kts | 180° |
| 2026-04-27 20:20 | 63.97796 | -22.60543 | 171 ft | 42 kts | 178° |
| 2026-04-27 20:20 | 63.97565 | -22.60545 | 173 ft | 20 kts | 180° |
| 2026-04-27 20:21 | 63.97471 | -22.60571 | 171 ft | 10 kts | 211° |
| 2026-04-27 20:21 | 63.97441 | -22.60695 | 169 ft | 10 kts | 254° |
| 2026-04-27 20:21 | 63.97453 | -22.60863 | 165 ft | 11 kts | 286° |
| 2026-04-27 20:21 | 63.97476 | -22.60931 | 164 ft | 5 kts | 334° |
| 2026-04-27 20:22 | 63.97510 | -22.60936 | 164 ft | 4 kts | 357° |
| 2026-04-27 20:22 | 63.97530 | -22.60940 | 165 ft | 2 kts | 354° |
| 2026-04-27 20:22 | 63.97547 | -22.60941 | 165 ft | 3 kts | 359° |
| 2026-04-27 20:22 | 63.97569 | -22.60941 | 166 ft | 5 kts | 0° |
| 2026-04-27 20:23 | 63.97622 | -22.60939 | 167 ft | 11 kts | 360° |
| 2026-04-27 20:23 | 63.97715 | -22.60940 | 168 ft | 15 kts | 0° |
| 2026-04-27 20:23 | 63.97818 | -22.60940 | 168 ft | 15 kts | 0° |
| 2026-04-27 20:23 | 63.97919 | -22.60939 | 168 ft | 14 kts | 360° |
| 2026-04-27 20:24 | 63.98020 | -22.60940 | 167 ft | 15 kts | 359° |
| 2026-04-27 20:24 | 63.98124 | -22.60943 | 166 ft | 15 kts | 0° |
| 2026-04-27 20:24 | 63.98231 | -22.60942 | 163 ft | 16 kts | 0° |
| 2026-04-27 20:24 | 63.98339 | -22.60941 | 164 ft | 14 kts | 360° |
| 2026-04-27 20:25 | 63.98437 | -22.60941 | 156 ft | 13 kts | 0° |
| 2026-04-27 20:25 | 63.98525 | -22.60941 | 165 ft | 13 kts | 0° |
| 2026-04-27 20:25 | 63.98622 | -22.60939 | 163 ft | 17 kts | 0° |
| 2026-04-27 20:25 | 63.98758 | -22.60937 | 162 ft | 18 kts | 0° |
| 2026-04-27 20:26 | 63.98859 | -22.60941 | 164 ft | 13 kts | 0° |
| 2026-04-27 20:26 | 63.98937 | -22.60940 | 166 ft | 10 kts | 0° |
| 2026-04-27 20:26 | 63.99003 | -22.60939 | 166 ft | 10 kts | 0° |
| 2026-04-27 20:26 | 63.99083 | -22.60938 | 163 ft | 14 kts | 359° |
| 2026-04-27 20:27 | 63.99153 | -22.60947 | 158 ft | 6 kts | 339° |
| 2026-04-27 20:27 | 63.99174 | -22.61059 | 158 ft | 12 kts | 275° |
| 2026-04-27 20:27 | 63.99173 | -22.61357 | 151 ft | 26 kts | 270° |
| 2026-04-27 20:27 | 63.99172 | -22.61823 | 141 ft | 28 kts | 271° |
| 2026-04-27 20:28 | 63.99171 | -22.62175 | 139 ft | 21 kts | 268° |
| 2026-04-27 20:28 | 63.99173 | -22.62504 | 139 ft | 20 kts | 270° |
| 2026-04-27 20:28 | 63.99178 | -22.62647 | 139 ft | 5 kts | 295° |
| 2026-04-27 20:28 | 63.99196 | -22.62671 | 139 ft | 4 kts | 345° |
| 2026-04-27 20:29 | 63.99242 | -22.62653 | 139 ft | 5 kts | 36° |
| 2026-04-27 20:29 | 63.99258 | -22.62611 | 139 ft | 2 kts | 51° |
| 2026-04-27 20:29 | 63.99271 | -22.62574 | 139 ft | 3 kts | 50° |
| 2026-04-27 20:29 | 63.99274 | -22.62567 | 139 ft | 0 kts | 50° |